sensor_id;sensor_type;location;lat;lon;timestamp;P1;durP1;ratioP1;P2;durP2;ratioP2
34204;SDS011;20471;49.680;20.074;2022-12-16T00:01:59;269.48;;;126.58;;
34204;SDS011;20471;49.680;20.074;2022-12-16T00:04:26;267.23;;;123.53;;
34204;SDS011;20471;49.680;20.074;2022-12-16T00:06:53;271.52;;;127.45;;
34204;SDS011;20471;49.680;20.074;2022-12-16T00:09:19;262.77;;;122.90;;
34204;SDS011;20471;49.680;20.074;2022-12-16T00:11:46;265.12;;;126.87;;
34204;SDS011;20471;49.680;20.074;2022-12-16T00:14:13;263.23;;;122.53;;
34204;SDS011;20471;49.680;20.074;2022-12-16T00:16:40;267.32;;;127.80;;
34204;SDS011;20471;49.680;20.074;2022-12-16T00:19:07;277.68;;;130.93;;
34204;SDS011;20471;49.680;20.074;2022-12-16T00:21:33;302.50;;;138.62;;
34204;SDS011;20471;49.680;20.074;2022-12-16T00:24:01;303.55;;;134.00;;
34204;SDS011;20471;49.680;20.074;2022-12-16T00:26:27;279.45;;;129.12;;
34204;SDS011;20471;49.680;20.074;2022-12-16T00:28:56;280.50;;;126.70;;
34204;SDS011;20471;49.680;20.074;2022-12-16T00:31:22;320.80;;;137.92;;
34204;SDS011;20471;49.680;20.074;2022-12-16T00:33:49;271.52;;;123.65;;
34204;SDS011;20471;49.680;20.074;2022-12-16T00:36:17;273.13;;;123.90;;
34204;SDS011;20471;49.680;20.074;2022-12-16T00:38:44;293.15;;;127.78;;
34204;SDS011;20471;49.680;20.074;2022-12-16T00:41:10;290.68;;;127.45;;
34204;SDS011;20471;49.680;20.074;2022-12-16T00:43:37;275.70;;;125.70;;
34204;SDS011;20471;49.680;20.074;2022-12-16T00:46:04;272.23;;;124.55;;
34204;SDS011;20471;49.680;20.074;2022-12-16T00:48:31;276.85;;;124.12;;
34204;SDS011;20471;49.680;20.074;2022-12-16T00:50:58;270.35;;;121.60;;
34204;SDS011;20471;49.680;20.074;2022-12-16T00:53:25;252.95;;;113.47;;
34204;SDS011;20471;49.680;20.074;2022-12-16T00:56:00;237.32;;;110.15;;
34204;SDS011;20471;49.680;20.074;2022-12-16T00:58:29;233.23;;;107.83;;
34204;SDS011;20471;49.680;20.074;2022-12-16T01:00:56;234.07;;;107.58;;
34204;SDS011;20471;49.680;20.074;2022-12-16T01:03:22;224.37;;;105.58;;
34204;SDS011;20471;49.680;20.074;2022-12-16T01:05:49;233.45;;;106.43;;
34204;SDS011;20471;49.680;20.074;2022-12-16T01:08:16;226.27;;;106.65;;
34204;SDS011;20471;49.680;20.074;2022-12-16T01:10:48;233.53;;;108.70;;
34204;SDS011;20471;49.680;20.074;2022-12-16T01:13:22;243.02;;;110.35;;
34204;SDS011;20471;49.680;20.074;2022-12-16T01:15:50;242.10;;;112.30;;
34204;SDS011;20471;49.680;20.074;2022-12-16T01:18:17;242.43;;;111.85;;
34204;SDS011;20471;49.680;20.074;2022-12-16T01:20:45;228.55;;;109.40;;
34204;SDS011;20471;49.680;20.074;2022-12-16T01:23:12;231.78;;;108.87;;
34204;SDS011;20471;49.680;20.074;2022-12-16T01:25:38;232.45;;;105.80;;
34204;SDS011;20471;49.680;20.074;2022-12-16T01:28:05;230.85;;;107.85;;
34204;SDS011;20471;49.680;20.074;2022-12-16T01:30:31;230.22;;;110.90;;
34204;SDS011;20471;49.680;20.074;2022-12-16T01:32:58;242.85;;;110.25;;
34204;SDS011;20471;49.680;20.074;2022-12-16T01:35:25;257.70;;;112.35;;
34204;SDS011;20471;49.680;20.074;2022-12-16T01:37:51;246.47;;;111.85;;
34204;SDS011;20471;49.680;20.074;2022-12-16T01:40:19;242.55;;;110.70;;
34204;SDS011;20471;49.680;20.074;2022-12-16T01:42:48;236.72;;;109.40;;
34204;SDS011;20471;49.680;20.074;2022-12-16T01:48:19;236.60;;;107.58;;
34204;SDS011;20471;49.680;20.074;2022-12-16T01:51:20;229.45;;;106.25;;
34204;SDS011;20471;49.680;20.074;2022-12-16T01:56:20;230.65;;;105.95;;
34204;SDS011;20471;49.680;20.074;2022-12-16T01:58:52;222.55;;;105.87;;
34204;SDS011;20471;49.680;20.074;2022-12-16T02:01:20;222.75;;;107.92;;
34204;SDS011;20471;49.680;20.074;2022-12-16T02:03:47;213.50;;;104.20;;
34204;SDS011;20471;49.680;20.074;2022-12-16T02:06:16;212.17;;;101.53;;
34204;SDS011;20471;49.680;20.074;2022-12-16T02:08:43;229.47;;;108.42;;
34204;SDS011;20471;49.680;20.074;2022-12-16T02:11:16;223.72;;;103.95;;
34204;SDS011;20471;49.680;20.074;2022-12-16T02:19:30;218.20;;;102.38;;
34204;SDS011;20471;49.680;20.074;2022-12-16T02:22:22;206.85;;;100.55;;
34204;SDS011;20471;49.680;20.074;2022-12-16T02:25:30;234.50;;;114.28;;
34204;SDS011;20471;49.680;20.074;2022-12-16T02:28:03;226.32;;;107.45;;
34204;SDS011;20471;49.680;20.074;2022-12-16T02:34:00;218.82;;;107.85;;
34204;SDS011;20471;49.680;20.074;2022-12-16T02:37:13;228.95;;;104.40;;
34204;SDS011;20471;49.680;20.074;2022-12-16T02:45:03;229.97;;;106.12;;
34204;SDS011;20471;49.680;20.074;2022-12-16T02:47:37;226.27;;;105.52;;
34204;SDS011;20471;49.680;20.074;2022-12-16T02:50:05;233.57;;;108.12;;
34204;SDS011;20471;49.680;20.074;2022-12-16T02:52:49;237.05;;;105.60;;
34204;SDS011;20471;49.680;20.074;2022-12-16T02:55:18;220.88;;;102.85;;
34204;SDS011;20471;49.680;20.074;2022-12-16T02:57:59;233.85;;;104.60;;
34204;SDS011;20471;49.680;20.074;2022-12-16T03:03:47;224.75;;;101.22;;
34204;SDS011;20471;49.680;20.074;2022-12-16T03:06:18;218.37;;;101.85;;
34204;SDS011;20471;49.680;20.074;2022-12-16T03:08:48;215.60;;;101.47;;
34204;SDS011;20471;49.680;20.074;2022-12-16T03:11:17;211.82;;;99.40;;
34204;SDS011;20471;49.680;20.074;2022-12-16T03:13:45;215.62;;;97.75;;
34204;SDS011;20471;49.680;20.074;2022-12-16T03:16:15;214.70;;;101.22;;
34204;SDS011;20471;49.680;20.074;2022-12-16T03:18:47;208.02;;;99.25;;
34204;SDS011;20471;49.680;20.074;2022-12-16T03:21:17;172.90;;;83.22;;
34204;SDS011;20471;49.680;20.074;2022-12-16T03:23:49;215.45;;;100.62;;
34204;SDS011;20471;49.680;20.074;2022-12-16T03:26:33;215.77;;;99.52;;
34204;SDS011;20471;49.680;20.074;2022-12-16T03:29:14;216.97;;;99.20;;
34204;SDS011;20471;49.680;20.074;2022-12-16T03:31:46;208.87;;;97.75;;
34204;SDS011;20471;49.680;20.074;2022-12-16T03:34:30;208.55;;;99.40;;
34204;SDS011;20471;49.680;20.074;2022-12-16T03:37:04;218.20;;;101.95;;
34204;SDS011;20471;49.680;20.074;2022-12-16T03:39:35;229.82;;;102.67;;
34204;SDS011;20471;49.680;20.074;2022-12-16T03:42:07;225.82;;;99.90;;
34204;SDS011;20471;49.680;20.074;2022-12-16T03:44:36;222.35;;;100.10;;
34204;SDS011;20471;49.680;20.074;2022-12-16T03:47:04;191.60;;;87.60;;
34204;SDS011;20471;49.680;20.074;2022-12-16T03:49:31;193.72;;;85.60;;
34204;SDS011;20471;49.680;20.074;2022-12-16T03:51:57;172.93;;;77.32;;
34204;SDS011;20471;49.680;20.074;2022-12-16T03:54:24;158.95;;;72.32;;
34204;SDS011;20471;49.680;20.074;2022-12-16T03:56:51;175.35;;;74.70;;
34204;SDS011;20471;49.680;20.074;2022-12-16T03:59:17;164.67;;;71.82;;
34204;SDS011;20471;49.680;20.074;2022-12-16T04:01:45;152.07;;;70.30;;
34204;SDS011;20471;49.680;20.074;2022-12-16T04:04:11;151.97;;;69.62;;
34204;SDS011;20471;49.680;20.074;2022-12-16T04:06:38;144.50;;;68.10;;
34204;SDS011;20471;49.680;20.074;2022-12-16T04:09:05;152.95;;;70.20;;
34204;SDS011;20471;49.680;20.074;2022-12-16T04:11:31;154.12;;;69.40;;
34204;SDS011;20471;49.680;20.074;2022-12-16T04:14:16;182.70;;;78.67;;
34204;SDS011;20471;49.680;20.074;2022-12-16T04:17:01;198.70;;;89.80;;
34204;SDS011;20471;49.680;20.074;2022-12-16T04:19:46;198.53;;;93.05;;
34204;SDS011;20471;49.680;20.074;2022-12-16T04:22:36;197.40;;;91.90;;
34204;SDS011;20471;49.680;20.074;2022-12-16T04:25:25;192.50;;;90.47;;
34204;SDS011;20471;49.680;20.074;2022-12-16T04:27:55;194.87;;;91.08;;
34204;SDS011;20471;49.680;20.074;2022-12-16T04:30:23;206.60;;;93.87;;
34204;SDS011;20471;49.680;20.074;2022-12-16T04:32:58;199.68;;;91.57;;
34204;SDS011;20471;49.680;20.074;2022-12-16T04:35:47;205.55;;;90.57;;
34204;SDS011;20471;49.680;20.074;2022-12-16T04:38:32;202.32;;;90.92;;
34204;SDS011;20471;49.680;20.074;2022-12-16T04:41:17;205.37;;;93.87;;
34204;SDS011;20471;49.680;20.074;2022-12-16T04:44:03;190.43;;;91.02;;
34204;SDS011;20471;49.680;20.074;2022-12-16T04:46:49;201.92;;;92.27;;
34204;SDS011;20471;49.680;20.074;2022-12-16T04:49:34;201.37;;;91.87;;
34204;SDS011;20471;49.680;20.074;2022-12-16T04:52:19;191.07;;;89.47;;
34204;SDS011;20471;49.680;20.074;2022-12-16T04:55:05;201.05;;;94.30;;
34204;SDS011;20471;49.680;20.074;2022-12-16T04:57:55;186.05;;;90.35;;
34204;SDS011;20471;49.680;20.074;2022-12-16T05:00:44;201.98;;;91.67;;
34204;SDS011;20471;49.680;20.074;2022-12-16T05:03:31;191.03;;;89.25;;
34204;SDS011;20471;49.680;20.074;2022-12-16T05:06:19;183.62;;;86.20;;
34204;SDS011;20471;49.680;20.074;2022-12-16T05:09:04;184.52;;;85.50;;
34204;SDS011;20471;49.680;20.074;2022-12-16T05:11:51;188.80;;;86.20;;
34204;SDS011;20471;49.680;20.074;2022-12-16T05:14:36;192.05;;;87.75;;
34204;SDS011;20471;49.680;20.074;2022-12-16T05:17:21;189.35;;;86.95;;
34204;SDS011;20471;49.680;20.074;2022-12-16T05:20:07;195.03;;;88.30;;
34204;SDS011;20471;49.680;20.074;2022-12-16T05:25:40;191.50;;;91.63;;
34204;SDS011;20471;49.680;20.074;2022-12-16T05:28:26;175.35;;;82.30;;
34204;SDS011;20471;49.680;20.074;2022-12-16T05:31:11;170.60;;;80.10;;
34204;SDS011;20471;49.680;20.074;2022-12-16T05:33:56;166.45;;;81.82;;
34204;SDS011;20471;49.680;20.074;2022-12-16T05:36:41;168.40;;;81.37;;
34204;SDS011;20471;49.680;20.074;2022-12-16T05:39:26;167.90;;;82.60;;
34204;SDS011;20471;49.680;20.074;2022-12-16T05:42:11;173.97;;;81.37;;
34204;SDS011;20471;49.680;20.074;2022-12-16T05:44:56;163.37;;;77.47;;
34204;SDS011;20471;49.680;20.074;2022-12-16T05:47:41;159.03;;;75.40;;
34204;SDS011;20471;49.680;20.074;2022-12-16T05:50:26;155.60;;;75.28;;
34204;SDS011;20471;49.680;20.074;2022-12-16T05:53:11;169.32;;;80.83;;
34204;SDS011;20471;49.680;20.074;2022-12-16T05:55:56;166.10;;;81.42;;
34204;SDS011;20471;49.680;20.074;2022-12-16T05:58:41;169.37;;;83.10;;
34204;SDS011;20471;49.680;20.074;2022-12-16T06:01:26;167.22;;;82.72;;
34204;SDS011;20471;49.680;20.074;2022-12-16T06:04:11;172.43;;;81.30;;
34204;SDS011;20471;49.680;20.074;2022-12-16T06:06:56;159.50;;;79.72;;
34204;SDS011;20471;49.680;20.074;2022-12-16T06:09:42;165.82;;;79.40;;
34204;SDS011;20471;49.680;20.074;2022-12-16T06:12:27;155.32;;;77.65;;
34204;SDS011;20471;49.680;20.074;2022-12-16T06:15:12;159.63;;;81.00;;
34204;SDS011;20471;49.680;20.074;2022-12-16T06:17:58;157.82;;;77.47;;
34204;SDS011;20471;49.680;20.074;2022-12-16T06:20:43;159.32;;;77.42;;
34204;SDS011;20471;49.680;20.074;2022-12-16T06:23:28;152.20;;;76.10;;
34204;SDS011;20471;49.680;20.074;2022-12-16T06:26:13;137.90;;;71.02;;
34204;SDS011;20471;49.680;20.074;2022-12-16T06:28:58;144.50;;;71.50;;
34204;SDS011;20471;49.680;20.074;2022-12-16T06:31:43;137.37;;;70.90;;
34204;SDS011;20471;49.680;20.074;2022-12-16T06:34:28;149.00;;;72.60;;
34204;SDS011;20471;49.680;20.074;2022-12-16T06:36:57;141.68;;;70.75;;
34204;SDS011;20471;49.680;20.074;2022-12-16T06:39:42;151.05;;;73.90;;
34204;SDS011;20471;49.680;20.074;2022-12-16T06:42:27;150.50;;;73.20;;
34204;SDS011;20471;49.680;20.074;2022-12-16T06:45:12;150.68;;;73.95;;
34204;SDS011;20471;49.680;20.074;2022-12-16T06:47:58;148.00;;;73.07;;
34204;SDS011;20471;49.680;20.074;2022-12-16T06:50:43;146.10;;;73.15;;
34204;SDS011;20471;49.680;20.074;2022-12-16T06:53:28;162.37;;;76.67;;
34204;SDS011;20471;49.680;20.074;2022-12-16T06:56:13;158.40;;;74.85;;
34204;SDS011;20471;49.680;20.074;2022-12-16T06:58:58;148.87;;;72.17;;
34204;SDS011;20471;49.680;20.074;2022-12-16T07:01:43;144.57;;;71.65;;
34204;SDS011;20471;49.680;20.074;2022-12-16T07:04:28;157.75;;;75.30;;
34204;SDS011;20471;49.680;20.074;2022-12-16T07:07:13;156.45;;;77.53;;
34204;SDS011;20471;49.680;20.074;2022-12-16T07:09:58;152.75;;;72.40;;
34204;SDS011;20471;49.680;20.074;2022-12-16T07:12:43;158.87;;;77.47;;
34204;SDS011;20471;49.680;20.074;2022-12-16T07:15:28;161.35;;;77.97;;
34204;SDS011;20471;49.680;20.074;2022-12-16T07:18:13;170.28;;;80.40;;
34204;SDS011;20471;49.680;20.074;2022-12-16T07:20:58;135.52;;;67.60;;
34204;SDS011;20471;49.680;20.074;2022-12-16T07:23:43;138.07;;;69.67;;
34204;SDS011;20471;49.680;20.074;2022-12-16T07:26:28;137.92;;;67.78;;
34204;SDS011;20471;49.680;20.074;2022-12-16T07:29:13;135.22;;;66.42;;
34204;SDS011;20471;49.680;20.074;2022-12-16T07:31:59;127.15;;;65.45;;
34204;SDS011;20471;49.680;20.074;2022-12-16T07:34:30;142.87;;;73.33;;
34204;SDS011;20471;49.680;20.074;2022-12-16T07:37:15;146.18;;;75.72;;
34204;SDS011;20471;49.680;20.074;2022-12-16T07:40:00;131.15;;;65.47;;
34204;SDS011;20471;49.680;20.074;2022-12-16T07:42:45;117.82;;;61.90;;
34204;SDS011;20471;49.680;20.074;2022-12-16T07:45:30;123.35;;;60.88;;
34204;SDS011;20471;49.680;20.074;2022-12-16T07:48:16;114.55;;;56.98;;
34204;SDS011;20471;49.680;20.074;2022-12-16T07:51:01;110.25;;;56.28;;
34204;SDS011;20471;49.680;20.074;2022-12-16T07:53:45;118.50;;;62.08;;
34204;SDS011;20471;49.680;20.074;2022-12-16T07:56:30;122.47;;;62.35;;
34204;SDS011;20471;49.680;20.074;2022-12-16T07:59:16;107.80;;;57.20;;
34204;SDS011;20471;49.680;20.074;2022-12-16T08:02:01;110.48;;;58.87;;
34204;SDS011;20471;49.680;20.074;2022-12-16T08:04:46;128.62;;;62.90;;
34204;SDS011;20471;49.680;20.074;2022-12-16T08:07:33;116.05;;;61.15;;
34204;SDS011;20471;49.680;20.074;2022-12-16T08:10:18;105.60;;;57.23;;
34204;SDS011;20471;49.680;20.074;2022-12-16T08:13:03;101.87;;;54.63;;
34204;SDS011;20471;49.680;20.074;2022-12-16T08:15:49;103.12;;;56.18;;
34204;SDS011;20471;49.680;20.074;2022-12-16T08:18:34;102.40;;;55.38;;
34204;SDS011;20471;49.680;20.074;2022-12-16T08:21:19;109.57;;;58.23;;
34204;SDS011;20471;49.680;20.074;2022-12-16T08:24:05;106.60;;;57.20;;
34204;SDS011;20471;49.680;20.074;2022-12-16T08:26:50;100.10;;;56.42;;
34204;SDS011;20471;49.680;20.074;2022-12-16T08:29:27;98.17;;;54.50;;
34204;SDS011;20471;49.680;20.074;2022-12-16T08:32:13;94.35;;;53.45;;
34204;SDS011;20471;49.680;20.074;2022-12-16T08:34:59;89.03;;;48.98;;
34204;SDS011;20471;49.680;20.074;2022-12-16T08:37:45;77.90;;;44.58;;
34204;SDS011;20471;49.680;20.074;2022-12-16T08:40:22;73.95;;;41.70;;
34204;SDS011;20471;49.680;20.074;2022-12-16T08:43:08;60.90;;;37.55;;
34204;SDS011;20471;49.680;20.074;2022-12-16T08:45:53;55.50;;;34.30;;
34204;SDS011;20471;49.680;20.074;2022-12-16T08:48:40;56.77;;;36.35;;
34204;SDS011;20471;49.680;20.074;2022-12-16T08:51:25;59.83;;;36.65;;
34204;SDS011;20471;49.680;20.074;2022-12-16T08:54:10;49.13;;;30.65;;
34204;SDS011;20471;49.680;20.074;2022-12-16T08:56:56;48.40;;;30.65;;
34204;SDS011;20471;49.680;20.074;2022-12-16T08:59:41;51.98;;;31.07;;
34204;SDS011;20471;49.680;20.074;2022-12-16T09:02:27;51.65;;;31.00;;
34204;SDS011;20471;49.680;20.074;2022-12-16T09:05:12;49.05;;;29.48;;
34204;SDS011;20471;49.680;20.074;2022-12-16T09:08:01;51.40;;;31.90;;
34204;SDS011;20471;49.680;20.074;2022-12-16T09:10:47;51.37;;;29.42;;
34204;SDS011;20471;49.680;20.074;2022-12-16T09:13:32;49.53;;;30.30;;
34204;SDS011;20471;49.680;20.074;2022-12-16T09:16:18;51.20;;;31.30;;
34204;SDS011;20471;49.680;20.074;2022-12-16T09:19:02;56.40;;;34.67;;
34204;SDS011;20471;49.680;20.074;2022-12-16T09:21:47;52.60;;;33.90;;
34204;SDS011;20471;49.680;20.074;2022-12-16T09:24:32;54.35;;;34.10;;
34204;SDS011;20471;49.680;20.074;2022-12-16T09:27:17;51.85;;;33.65;;
34204;SDS011;20471;49.680;20.074;2022-12-16T09:30:02;55.58;;;35.08;;
34204;SDS011;20471;49.680;20.074;2022-12-16T09:32:48;52.80;;;34.23;;
34204;SDS011;20471;49.680;20.074;2022-12-16T09:35:33;53.42;;;33.00;;
34204;SDS011;20471;49.680;20.074;2022-12-16T09:38:18;49.80;;;32.50;;
34204;SDS011;20471;49.680;20.074;2022-12-16T09:44:15;46.58;;;29.45;;
34204;SDS011;20471;49.680;20.074;2022-12-16T09:50:19;49.42;;;30.68;;
34204;SDS011;20471;49.680;20.074;2022-12-16T09:53:11;50.28;;;30.48;;
34204;SDS011;20471;49.680;20.074;2022-12-16T09:56:02;46.13;;;29.95;;
34204;SDS011;20471;49.680;20.074;2022-12-16T09:58:50;44.67;;;28.38;;
34204;SDS011;20471;49.680;20.074;2022-12-16T10:01:42;45.38;;;27.85;;
34204;SDS011;20471;49.680;20.074;2022-12-16T10:04:29;62.40;;;34.63;;
34204;SDS011;20471;49.680;20.074;2022-12-16T10:13:11;49.25;;;31.42;;
34204;SDS011;20471;49.680;20.074;2022-12-16T10:25:21;45.95;;;27.77;;
34204;SDS011;20471;49.680;20.074;2022-12-16T10:28:15;50.25;;;31.50;;
34204;SDS011;20471;49.680;20.074;2022-12-16T10:31:11;58.35;;;34.00;;
34204;SDS011;20471;49.680;20.074;2022-12-16T10:33:59;60.10;;;34.60;;
34204;SDS011;20471;49.680;20.074;2022-12-16T10:36:45;48.45;;;30.20;;
34204;SDS011;20471;49.680;20.074;2022-12-16T10:39:35;46.95;;;29.07;;
34204;SDS011;20471;49.680;20.074;2022-12-16T10:42:27;44.42;;;26.77;;
34204;SDS011;20471;49.680;20.074;2022-12-16T10:45:20;41.75;;;26.57;;
34204;SDS011;20471;49.680;20.074;2022-12-16T10:48:13;38.17;;;23.55;;
34204;SDS011;20471;49.680;20.074;2022-12-16T10:51:04;43.17;;;27.75;;
34204;SDS011;20471;49.680;20.074;2022-12-16T10:53:54;43.20;;;27.35;;
34204;SDS011;20471;49.680;20.074;2022-12-16T10:56:54;45.23;;;25.90;;
34204;SDS011;20471;49.680;20.074;2022-12-16T10:59:43;37.35;;;24.15;;
34204;SDS011;20471;49.680;20.074;2022-12-16T11:02:28;41.48;;;24.37;;
34204;SDS011;20471;49.680;20.074;2022-12-16T11:05:30;38.17;;;23.00;;
34204;SDS011;20471;49.680;20.074;2022-12-16T11:11:23;35.83;;;22.40;;
34204;SDS011;20471;49.680;20.074;2022-12-16T11:17:14;36.58;;;23.87;;
34204;SDS011;20471;49.680;20.074;2022-12-16T11:20:07;41.60;;;25.75;;
34204;SDS011;20471;49.680;20.074;2022-12-16T11:26:12;43.17;;;25.92;;
34204;SDS011;20471;49.680;20.074;2022-12-16T11:32:00;31.30;;;19.00;;
34204;SDS011;20471;49.680;20.074;2022-12-16T11:34:53;31.85;;;18.32;;
34204;SDS011;20471;49.680;20.074;2022-12-16T11:37:41;33.40;;;19.87;;
34204;SDS011;20471;49.680;20.074;2022-12-16T11:40:28;29.67;;;19.48;;
34204;SDS011;20471;49.680;20.074;2022-12-16T11:43:15;28.75;;;17.85;;
34204;SDS011;20471;49.680;20.074;2022-12-16T11:46:04;29.55;;;19.02;;
34204;SDS011;20471;49.680;20.074;2022-12-16T11:49:02;34.98;;;21.15;;
34204;SDS011;20471;49.680;20.074;2022-12-16T11:51:56;37.55;;;22.27;;
34204;SDS011;20471;49.680;20.074;2022-12-16T12:01:01;33.78;;;22.35;;
34204;SDS011;20471;49.680;20.074;2022-12-16T12:03:51;36.90;;;23.07;;
34204;SDS011;20471;49.680;20.074;2022-12-16T12:09:40;31.02;;;20.92;;
34204;SDS011;20471;49.680;20.074;2022-12-16T12:12:32;38.58;;;22.45;;
34204;SDS011;20471;49.680;20.074;2022-12-16T12:15:39;34.85;;;22.15;;
34204;SDS011;20471;49.680;20.074;2022-12-16T12:28:06;32.00;;;19.43;;
34204;SDS011;20471;49.680;20.074;2022-12-16T12:31:05;29.12;;;19.67;;
34204;SDS011;20471;49.680;20.074;2022-12-16T12:34:03;34.05;;;20.60;;
34204;SDS011;20471;49.680;20.074;2022-12-16T12:37:23;32.35;;;20.27;;
34204;SDS011;20471;49.680;20.074;2022-12-16T12:46:32;31.37;;;20.17;;
34204;SDS011;20471;49.680;20.074;2022-12-16T12:49:54;28.75;;;18.20;;
34204;SDS011;20471;49.680;20.074;2022-12-16T13:02:49;30.17;;;20.20;;
34204;SDS011;20471;49.680;20.074;2022-12-16T13:05:45;32.15;;;20.97;;
34204;SDS011;20471;49.680;20.074;2022-12-16T13:08:33;30.77;;;20.77;;
34204;SDS011;20471;49.680;20.074;2022-12-16T13:11:37;31.80;;;19.92;;
34204;SDS011;20471;49.680;20.074;2022-12-16T13:23:40;28.15;;;19.02;;
34204;SDS011;20471;49.680;20.074;2022-12-16T13:26:29;28.95;;;18.87;;
34204;SDS011;20471;49.680;20.074;2022-12-16T13:29:24;27.80;;;18.87;;
34204;SDS011;20471;49.680;20.074;2022-12-16T13:37:56;33.92;;;20.15;;
34204;SDS011;20471;49.680;20.074;2022-12-16T13:41:05;34.20;;;20.77;;
34204;SDS011;20471;49.680;20.074;2022-12-16T13:44:52;34.92;;;22.27;;
34204;SDS011;20471;49.680;20.074;2022-12-16T13:47:30;31.12;;;20.17;;
34204;SDS011;20471;49.680;20.074;2022-12-16T13:53:22;35.20;;;20.52;;
34204;SDS011;20471;49.680;20.074;2022-12-16T13:56:12;26.82;;;18.80;;
34204;SDS011;20471;49.680;20.074;2022-12-16T14:01:52;38.83;;;23.80;;
34204;SDS011;20471;49.680;20.074;2022-12-16T14:04:44;39.53;;;25.75;;
34204;SDS011;20471;49.680;20.074;2022-12-16T14:07:36;40.17;;;26.23;;
34204;SDS011;20471;49.680;20.074;2022-12-16T14:13:26;32.10;;;22.13;;
34204;SDS011;20471;49.680;20.074;2022-12-16T14:16:31;27.25;;;19.17;;
34204;SDS011;20471;49.680;20.074;2022-12-16T14:19:35;31.73;;;21.62;;
34204;SDS011;20471;49.680;20.074;2022-12-16T14:26:00;33.48;;;22.32;;
34204;SDS011;20471;49.680;20.074;2022-12-16T14:28:46;47.48;;;28.05;;
34204;SDS011;20471;49.680;20.074;2022-12-16T14:31:36;51.05;;;32.03;;
34204;SDS011;20471;49.680;20.074;2022-12-16T14:34:27;54.25;;;32.03;;
34204;SDS011;20471;49.680;20.074;2022-12-16T14:37:20;51.60;;;30.48;;
34204;SDS011;20471;49.680;20.074;2022-12-16T14:40:27;50.23;;;29.32;;
34204;SDS011;20471;49.680;20.074;2022-12-16T14:43:13;34.27;;;21.53;;
34204;SDS011;20471;49.680;20.074;2022-12-16T14:46:22;48.38;;;28.17;;
34204;SDS011;20471;49.680;20.074;2022-12-16T14:49:22;43.75;;;27.87;;
34204;SDS011;20471;49.680;20.074;2022-12-16T14:55:11;43.98;;;27.00;;
34204;SDS011;20471;49.680;20.074;2022-12-16T15:03:49;45.98;;;27.27;;
34204;SDS011;20471;49.680;20.074;2022-12-16T15:12:13;43.75;;;26.25;;
34204;SDS011;20471;49.680;20.074;2022-12-16T15:15:03;40.12;;;25.82;;
34204;SDS011;20471;49.680;20.074;2022-12-16T15:17:54;40.92;;;25.57;;
34204;SDS011;20471;49.680;20.074;2022-12-16T15:20:48;44.98;;;25.75;;
34204;SDS011;20471;49.680;20.074;2022-12-16T15:23:38;38.50;;;25.23;;
34204;SDS011;20471;49.680;20.074;2022-12-16T15:26:28;39.05;;;23.62;;
34204;SDS011;20471;49.680;20.074;2022-12-16T15:29:26;35.13;;;22.98;;
34204;SDS011;20471;49.680;20.074;2022-12-16T15:38:29;42.23;;;27.80;;
34204;SDS011;20471;49.680;20.074;2022-12-16T15:41:25;45.55;;;28.27;;
34204;SDS011;20471;49.680;20.074;2022-12-16T15:44:19;43.40;;;26.77;;
34204;SDS011;20471;49.680;20.074;2022-12-16T15:50:11;43.80;;;27.42;;
34204;SDS011;20471;49.680;20.074;2022-12-16T15:53:13;47.90;;;29.15;;
34204;SDS011;20471;49.680;20.074;2022-12-16T15:56:18;46.90;;;28.47;;
34204;SDS011;20471;49.680;20.074;2022-12-16T15:59:21;46.28;;;29.27;;
34204;SDS011;20471;49.680;20.074;2022-12-16T16:02:13;46.18;;;28.83;;
34204;SDS011;20471;49.680;20.074;2022-12-16T16:05:01;52.38;;;31.82;;
34204;SDS011;20471;49.680;20.074;2022-12-16T16:07:53;65.03;;;35.68;;
34204;SDS011;20471;49.680;20.074;2022-12-16T16:10:38;64.58;;;38.45;;
34204;SDS011;20471;49.680;20.074;2022-12-16T16:13:27;65.08;;;38.85;;
34204;SDS011;20471;49.680;20.074;2022-12-16T16:16:13;61.20;;;35.78;;
34204;SDS011;20471;49.680;20.074;2022-12-16T16:18:58;62.90;;;36.65;;
34204;SDS011;20471;49.680;20.074;2022-12-16T16:21:43;60.43;;;35.83;;
34204;SDS011;20471;49.680;20.074;2022-12-16T16:24:28;60.25;;;35.75;;
34204;SDS011;20471;49.680;20.074;2022-12-16T16:27:14;62.30;;;35.70;;
34204;SDS011;20471;49.680;20.074;2022-12-16T16:30:00;58.10;;;36.53;;
34204;SDS011;20471;49.680;20.074;2022-12-16T16:32:45;65.95;;;38.30;;
34204;SDS011;20471;49.680;20.074;2022-12-16T16:35:30;64.55;;;37.93;;
34204;SDS011;20471;49.680;20.074;2022-12-16T16:38:17;85.85;;;47.35;;
34204;SDS011;20471;49.680;20.074;2022-12-16T16:41:02;84.07;;;46.98;;
34204;SDS011;20471;49.680;20.074;2022-12-16T16:43:47;90.55;;;51.45;;
34204;SDS011;20471;49.680;20.074;2022-12-16T16:46:33;92.65;;;51.40;;
34204;SDS011;20471;49.680;20.074;2022-12-16T16:52:19;89.40;;;50.38;;
34204;SDS011;20471;49.680;20.074;2022-12-16T16:58:10;74.77;;;42.98;;
34204;SDS011;20471;49.680;20.074;2022-12-16T17:01:13;78.45;;;45.10;;
34204;SDS011;20471;49.680;20.074;2022-12-16T17:04:00;72.62;;;42.67;;
34204;SDS011;20471;49.680;20.074;2022-12-16T17:06:45;68.60;;;41.10;;
34204;SDS011;20471;49.680;20.074;2022-12-16T17:09:30;75.03;;;42.62;;
34204;SDS011;20471;49.680;20.074;2022-12-16T17:12:19;75.30;;;44.30;;
34204;SDS011;20471;49.680;20.074;2022-12-16T17:15:15;89.83;;;50.38;;
34204;SDS011;20471;49.680;20.074;2022-12-16T17:18:08;86.63;;;47.45;;
34204;SDS011;20471;49.680;20.074;2022-12-16T17:20:54;99.37;;;53.70;;
34204;SDS011;20471;49.680;20.074;2022-12-16T17:23:39;92.17;;;52.27;;
34204;SDS011;20471;49.680;20.074;2022-12-16T17:26:26;97.78;;;52.38;;
34204;SDS011;20471;49.680;20.074;2022-12-16T17:29:16;101.95;;;53.63;;
34204;SDS011;20471;49.680;20.074;2022-12-16T17:34:49;100.18;;;55.17;;
34204;SDS011;20471;49.680;20.074;2022-12-16T17:37:34;103.80;;;53.92;;
34204;SDS011;20471;49.680;20.074;2022-12-16T17:40:19;105.58;;;55.60;;
34204;SDS011;20471;49.680;20.074;2022-12-16T17:43:05;104.23;;;53.92;;
34204;SDS011;20471;49.680;20.074;2022-12-16T17:45:56;99.55;;;54.25;;
34204;SDS011;20471;49.680;20.074;2022-12-16T17:48:56;94.37;;;51.88;;
34204;SDS011;20471;49.680;20.074;2022-12-16T17:51:42;98.42;;;52.80;;
34204;SDS011;20471;49.680;20.074;2022-12-16T17:54:27;92.47;;;51.25;;
34204;SDS011;20471;49.680;20.074;2022-12-16T17:57:12;93.52;;;50.35;;
34204;SDS011;20471;49.680;20.074;2022-12-16T17:59:58;93.00;;;50.90;;
34204;SDS011;20471;49.680;20.074;2022-12-16T18:02:43;96.72;;;52.53;;
34204;SDS011;20471;49.680;20.074;2022-12-16T18:05:28;83.42;;;47.23;;
34204;SDS011;20471;49.680;20.074;2022-12-16T18:08:14;86.95;;;50.15;;